Airfield :
LOGIN :

Register | Disclaimer

   EN    FR    IT 

 










Legend :    VFR   Marginal VFR   IFR   Intensive IFR   Very Intensive IFR
Visi :
Ceiling :
>= 8 km
>= 3000ft
5 to 8 km
1000 to 3000 ft
1500m to 5 km
500 to 1000 ft
800 to 1500m
200 to 500 ft
< 800m
< 200 ft
Symbols :   Thunderstorms  Fog  Heavy snow  Heavy precipitations  Wind > 20 kt
SIGMETs :     Misc.  Thunderstorms  Icing  Turbulence  Mountain Waves  Volcanic Ashes







- Airport Elevation : 778 ft
- IATA code : BRQ


LKTB - Brno-Turany

CURRENT METAR :
  • 192200Z VRB02KT CAVOK 19/12 Q1023 NOSIG

EXPIRED METARs :
  • 192130Z 11003KT 090V170 CAVOK 18/12 Q1023 NOSIG
  • 192100Z 35004KT CAVOK 21/12 Q1023 NOSIG
  • 192030Z 01005KT 340V040 CAVOK 22/12 Q1023 NOSIG
  • 192000Z 33006KT CAVOK 22/12 Q1022 NOSIG
  • 191930Z 34007KT CAVOK 23/12 Q1022 NOSIG

TAF TAF LKTB
Valid from the 19 at 18:00 until the 21 at 00:00 UTC


191700Z 1918/2100 33007KT CAVOK
BECMG 1922/2000 VRB02KT
TEMPO 2008/2016 10007KT
No reported NOTAMs for that airfield.



MET'MAP, your aeronautical weather chart ! - Copyright ORBIFLY December 2007 - Disclaimer

ORBIFLY MET'MAP TEAM :

Programming & Development : Alexandra Zaïnal
Concept & Development : Baudouin d'Aumeries
Co-Development & Prog : Marc-Olivier Méhu
Technical & hardware support : Manuel Goepfert

Contact : metmap@orbifly.com




SOURCES & CREDITS :

   NOAA